Time;durP1;ratioP1;P1;durP2;ratioP2;P2;SDS_P1;SDS_P2;PMS_P1;PMS_P2;Temp;Humidity;BMP_temperature;BMP_pressure;BME280_temperature;BME280_humidity;BME280_pressure;Samples;Min_cycle;Max_cycle;Signal;HPM_P1;HPM_P2
2023/05/17 16:59:43;;;;;;;15.95;3.90;;;14.50;53.70;;;13.65;42.35;101551.66;5104724;27;20703;-80
2023/05/17 17:02:10;;;;;;;15.45;3.88;;;14.50;53.20;;;13.69;41.74;101549.41;5083690;28;20117;-80
2023/05/17 17:04:37;;;;;;;17.98;3.70;;;14.60;52.40;;;13.77;41.93;101557.25;5078837;28;20045;-83
2023/05/17 17:07:05;;;;;;;15.15;3.67;;;14.60;52.60;;;13.88;41.45;101562.00;5081703;28;20050;-76
2023/05/17 17:09:32;;;;;;;15.20;3.38;;;14.70;52.10;;;13.99;40.47;101554.34;5072010;28;20259;-78
2023/05/17 17:11:59;;;;;;;12.70;3.50;;;14.80;51.00;;;14.07;39.85;101559.53;5070691;28;20109;-82
2023/05/17 17:14:27;;;;;;;13.45;3.92;;;14.80;50.40;;;14.17;39.42;101565.28;5074743;28;20122;-84
2023/05/17 17:16:55;;;;;;;14.10;3.85;;;14.90;50.00;;;14.25;40.07;101554.34;5075695;28;20056;-77
2023/05/17 17:19:23;;;;;;;11.32;3.33;;;15.00;50.80;;;14.33;40.16;101556.78;5068527;28;20072;-77
2023/05/17 17:21:50;;;;;;;11.10;3.35;;;15.00;50.70;;;14.39;39.54;101566.69;5063333;28;20041;-77
2023/05/17 17:24:17;;;;;;;12.48;3.22;;;15.10;50.20;;;14.44;39.10;101560.69;5066680;28;20052;-77
2023/05/17 17:26:44;;;;;;;14.88;3.70;;;15.20;49.80;;;14.49;39.73;101557.41;5073224;28;20048;-77
2023/05/17 17:29:12;;;;;;;13.55;3.72;;;15.20;50.30;;;14.52;39.87;101557.00;5072206;28;20492;-77
2023/05/17 17:31:39;;;;;;;14.50;3.00;;;15.20;50.50;;;14.54;38.96;101544.19;5073795;28;20131;-77
2023/05/17 17:34:08;;;;;;;15.68;3.83;;;15.30;49.50;;;14.55;38.33;101556.59;5071259;28;20524;-76
2023/05/17 17:36:35;;;;;;;15.70;3.92;;;15.30;48.50;;;14.56;38.87;101556.38;5064972;28;20080;-76
2023/05/17 17:39:02;;;;;;;21.08;4.43;;;15.30;49.40;;;14.58;40.32;101567.72;5064874;28;20111;-76
2023/05/17 17:41:29;;;;;;;18.23;3.67;;;15.30;51.10;;;14.60;39.03;101564.84;5070841;28;20036;-77
2023/05/17 17:43:56;;;;;;;12.27;3.00;;;15.30;49.50;;;14.60;38.97;101560.28;5071195;28;20076;-77
2023/05/17 17:46:24;;;;;;;16.17;3.63;;;15.30;49.30;;;14.60;38.32;101557.59;5074721;28;20139;-76
2023/05/17 17:48:51;;;;;;;13.88;3.33;;;15.30;48.40;;;14.62;38.66;101562.75;5069511;28;20040;-76
2023/05/17 17:51:20;;;;;;;16.92;3.53;;;15.30;48.90;;;14.62;38.81;101568.13;5065368;28;20048;-76
2023/05/17 17:53:47;;;;;;;13.50;3.63;;;15.40;49.00;;;14.61;38.66;101566.47;5066678;28;20123;-76
2023/05/17 17:56:15;;;;;;;15.48;3.38;;;15.30;49.20;;;14.60;39.30;101565.66;5068373;28;20048;-76
2023/05/17 17:58:42;;;;;;;17.70;3.92;;;15.40;50.00;;;14.61;39.47;101567.31;5080635;28;20089;-76
2023/05/17 18:01:09;;;;;;;14.15;3.40;;;15.30;49.90;;;14.61;39.04;101571.84;5093551;28;20515;-76
2023/05/17 18:03:37;;;;;;;28.77;12.07;;;15.30;49.50;;;14.59;38.94;101574.75;5097180;28;20048;-76
2023/05/17 18:06:04;;;;;;;21.10;8.88;;;15.30;49.20;;;14.58;38.76;101577.63;5104699;28;20450;-77
2023/05/17 18:08:33;;;;;;;17.30;4.90;;;15.30;49.20;;;14.55;38.11;101573.53;5101936;28;20051;-76
2023/05/17 18:11:01;;;;;;;34.45;14.48;;;15.30;48.50;;;14.52;38.67;101578.47;5090958;28;20123;-76
2023/05/17 18:13:28;;;;;;;18.83;5.25;;;15.30;49.30;;;14.54;38.82;101579.94;5087816;28;20051;-77
2023/05/17 18:15:55;;;;;;;9.95;3.20;;;15.20;49.00;;;14.52;38.73;101581.16;5088673;28;20115;-75
2023/05/17 18:18:22;;;;;;;15.10;3.60;;;15.20;49.00;;;14.51;38.47;101582.19;5085785;28;20040;-76
2023/05/17 18:20:50;;;;;;;13.73;3.30;;;15.20;48.70;;;14.47;38.60;101588.97;5088708;28;20381;-76
2023/05/17 18:23:17;;;;;;;11.88;3.42;;;15.20;48.60;;;14.47;38.77;101591.66;5078061;28;20079;-75
2023/05/17 18:25:47;;;;;;;17.92;3.13;;;15.20;49.10;;;14.46;39.07;101584.66;5084570;28;20377;-75
2023/05/17 18:28:15;;;;;;;12.73;3.50;;;15.20;49.40;;;14.45;38.92;101583.00;5081854;28;20762;-75
2023/05/17 18:30:42;;;;;;;15.48;3.88;;;15.10;49.20;;;14.41;39.01;101594.16;5086186;28;20119;-75
2023/05/17 18:33:09;;;;;;;17.60;2.97;;;15.10;49.40;;;14.39;39.03;101582.78;5088224;28;20093;-76
2023/05/17 18:35:37;;;;;;;16.05;3.25;;;15.10;49.40;;;14.37;38.67;101576.81;5082857;28;20094;-75
2023/05/17 18:38:04;;;;;;;11.90;3.10;;;15.10;49.00;;;14.35;38.45;101584.25;5082583;22;20057;-79
2023/05/17 18:40:31;;;;;;;15.80;4.38;;;15.10;48.80;;;14.34;38.77;101585.28;5039379;28;20072;-79
2023/05/17 18:43:00;;;;;;;14.68;2.92;;;15.10;49.20;;;14.33;38.95;101586.31;5038957;28;20069;-79
2023/05/17 18:45:27;;;;;;;11.60;2.70;;;15.00;49.20;;;14.33;38.78;101594.38;5040375;28;20045;-81
2023/05/17 18:47:54;;;;;;;12.63;3.47;;;15.00;49.30;;;14.32;39.03;101589.22;5037454;28;20068;-83
2023/05/17 18:50:22;;;;;;;16.90;3.33;;;15.00;49.40;;;14.31;39.94;101591.06;5021942;28;20473;-80
2023/05/17 18:52:49;;;;;;;19.52;4.03;;;15.00;50.40;;;14.28;39.61;101588.78;5038751;28;20735;-82
2023/05/17 18:55:16;;;;;;;12.80;3.17;;;15.00;50.10;;;14.27;39.36;101591.69;5022953;28;20088;-80
2023/05/17 18:57:43;;;;;;;12.20;3.03;;;15.00;50.00;;;14.26;39.67;101593.56;5026233;28;20045;-82
2023/05/17 19:00:14;;;;;;;16.58;3.03;;;15.00;50.30;;;14.21;39.27;101592.53;5034189;28;20044;-81
2023/05/17 19:02:41;;;;;;;17.20;3.50;;;14.90;49.90;;;14.20;39.56;101596.22;5023611;28;20049;-81
2023/05/17 19:05:09;;;;;;;16.15;3.25;;;14.90;50.20;;;14.20;39.33;101596.22;5023440;28;20045;-79
2023/05/17 19:07:36;;;;;;;13.38;2.88;;;14.90;49.70;;;14.18;39.50;101601.81;5027562;28;20500;-81
2023/05/17 19:10:04;;;;;;;11.82;2.88;;;14.90;50.10;;;14.16;39.67;101593.16;5025066;28;20045;-81
2023/05/17 19:12:31;;;;;;;10.88;2.70;;;14.90;50.40;;;14.15;39.96;101599.53;5026029;28;20044;-82
2023/05/17 19:14:58;;;;;;;14.70;2.60;;;14.90;50.60;;;14.11;39.67;101604.50;5023806;28;20049;-80
2023/05/17 19:17:27;;;;;;;13.55;3.17;;;14.80;50.40;;;14.09;39.76;101595.81;5015490;28;20144;-80
2023/05/17 19:19:54;;;;;;;13.10;2.70;;;14.80;50.50;;;14.09;40.24;101603.88;5026067;28;20040;-81
2023/05/17 19:22:21;;;;;;;9.25;3.08;;;14.80;50.90;;;14.08;40.27;101604.09;5025153;28;20092;-80
2023/05/17 19:24:49;;;;;;;13.05;3.10;;;14.80;51.10;;;14.08;41.32;101604.09;5026325;28;20050;-80
2023/05/17 19:27:18;;;;;;;7.55;2.17;;;14.80;52.30;;;14.04;40.92;101603.66;5025840;28;20439;-81
2023/05/17 19:29:45;;;;;;;16.05;3.33;;;14.80;51.70;;;14.02;40.13;101605.75;5026693;28;20065;-80
2023/05/17 19:32:13;;;;;;;13.52;2.92;;;14.70;50.60;;;14.01;40.14;101608.63;5024724;28;20046;-81
2023/05/17 19:34:41;;;;;;;11.63;3.10;;;14.70;50.80;;;13.99;40.07;101608.00;5025380;28;20468;-81
2023/05/17 19:37:08;;;;;;;11.18;2.45;;;14.60;50.70;;;13.97;40.33;101607.41;5027012;28;20049;-80
2023/05/17 19:39:36;;;;;;;10.10;2.67;;;14.70;51.10;;;13.95;40.27;101609.44;5021990;28;20448;-81
2023/05/17 19:42:05;;;;;;;11.20;3.17;;;14.70;51.10;;;13.93;40.33;101622.25;5024108;28;20049;-80
2023/05/17 19:44:32;;;;;;;13.38;2.90;;;14.60;51.10;;;13.90;40.57;101612.72;5022866;28;20147;-80
2023/05/17 19:46:59;;;;;;;10.60;2.55;;;14.60;51.40;;;13.89;40.48;101622.63;5025349;28;20519;-81
2023/05/17 19:49:26;;;;;;;10.95;2.75;;;14.60;51.50;;;13.85;40.70;101626.75;5026100;28;20074;-81
2023/05/17 19:51:59;;;;;;;9.77;2.42;;;14.60;51.40;;;13.85;40.55;101628.63;5027350;28;20435;-80
2023/05/17 19:54:28;;;;;;;9.30;2.85;;;14.60;51.30;;;13.83;40.98;101628.00;5025015;28;20128;-81
2023/05/17 19:56:56;;;;;;;9.80;2.80;;;14.60;51.80;;;13.81;41.38;101627.38;5034897;28;20052;-81
2023/05/17 19:59:23;;;;;;;15.52;3.20;;;14.50;52.40;;;13.78;41.30;101631.28;5024818;28;20038;-81
2023/05/17 20:01:51;;;;;;;12.13;3.05;;;14.50;52.40;;;13.74;41.28;101635.41;5026484;28;20049;-80
2023/05/17 20:04:18;;;;;;;8.60;3.08;;;14.40;52.20;;;13.73;41.13;101635.63;5023750;28;20046;-81
2023/05/17 20:06:45;;;;;;;10.38;2.72;;;14.40;52.20;;;13.70;41.25;101634.16;5024872;28;20112;-80
2023/05/17 20:09:14;;;;;;;10.00;2.70;;;14.40;52.30;;;13.67;41.63;101634.56;5025388;28;20037;-81
2023/05/17 20:11:41;;;;;;;11.30;2.72;;;14.30;52.90;;;13.63;42.10;101634.16;5023947;28;20572;-80
2023/05/17 20:14:10;;;;;;;13.00;3.05;;;14.30;53.20;;;13.60;42.58;101629.19;5044779;28;20138;-82
2023/05/17 20:16:38;;;;;;;11.18;2.75;;;14.30;53.80;;;13.56;42.09;101627.09;5024876;28;20764;-80
2023/05/17 20:19:32;;;;;;;12.45;2.65;;;14.30;53.30;;;13.54;42.30;101629.19;5026229;28;20052;-80
2023/05/17 20:22:00;;;;;;;17.88;3.45;;;14.20;53.40;;;13.51;41.72;101634.94;5024298;28;20077;-82
2023/05/17 20:24:29;;;;;;;11.35;3.03;;;14.20;52.80;;;13.45;41.71;101635.75;5024068;28;20131;-80
2023/05/17 20:26:57;;;;;;;14.13;3.03;;;14.10;52.90;;;13.41;41.86;101627.28;5024301;28;20996;-80
2023/05/17 20:29:24;;;;;;;11.15;2.80;;;14.10;53.00;;;13.39;42.07;101632.03;5025084;28;20124;-80
2023/05/17 20:31:51;;;;;;;11.95;3.17;;;14.10;53.20;;;13.38;42.00;101638.41;5022592;28;20575;-79
2023/05/17 20:34:18;;;;;;;12.50;3.00;;;14.10;53.30;;;13.36;42.24;101640.44;5023740;28;20126;-80
2023/05/17 20:36:46;;;;;;;10.88;2.53;;;14.00;53.40;;;13.34;42.29;101639.84;5021576;28;20052;-80
2023/05/17 20:39:14;;;;;;;10.88;2.95;;;14.00;53.40;;;13.30;42.46;101642.09;5024388;28;20123;-80
2023/05/17 20:41:43;;;;;;;9.52;2.67;;;14.00;53.70;;;13.30;42.40;101643.94;5018748;28;20052;-80
2023/05/17 20:44:11;;;;;;;11.93;2.90;;;14.00;53.70;;;13.27;42.37;101645.16;5020039;28;20142;-80
2023/05/17 20:46:38;;;;;;;9.88;2.58;;;14.00;53.70;;;13.28;42.98;101646.00;5024418;28;20047;-80
2023/05/17 20:49:08;;;;;;;8.27;2.58;;;13.90;54.40;;;13.26;43.12;101648.03;5023938;28;20042;-79
2023/05/17 20:51:35;;;;;;;13.02;3.08;;;13.90;54.60;;;13.23;42.73;101645.78;5021663;28;20084;-81
2023/05/17 20:54:04;;;;;;;10.88;3.03;;;13.90;54.20;;;13.20;42.89;101641.59;5023984;28;20128;-80
2023/05/17 20:56:33;;;;;;;12.00;3.15;;;13.90;54.50;;;13.18;43.15;101650.88;5023479;28;20052;-79
2023/05/17 20:59:02;;;;;;;10.18;3.05;;;13.90;54.80;;;13.16;43.45;101651.06;5022957;28;20045;-79
2023/05/17 21:01:30;;;;;;;13.52;3.40;;;13.90;54.20;;;13.15;43.64;101652.09;5020263;28;20136;-80
2023/05/17 21:03:57;;;;;;;14.15;3.33;;;13.90;54.70;;;13.13;43.94;101646.13;5016988;28;20056;-81
2023/05/17 21:06:26;;;;;;;11.27;2.80;;;13.80;54.70;;;13.08;44.54;101649.38;5021221;28;20047;-79
2023/05/17 21:08:53;;;;;;;8.05;2.88;;;13.80;55.70;;;13.04;44.98;101648.13;5023369;28;20046;-80
2023/05/17 21:11:21;;;;;;;9.93;3.05;;;13.70;56.10;;;13.05;45.36;101654.31;5023484;28;20398;-81
2023/05/17 21:13:48;;;;;;;9.93;3.03;;;13.70;56.40;;;13.01;45.33;101645.81;5027966;28;20524;-81
2023/05/17 21:16:17;;;;;;;12.60;3.03;;;13.70;56.70;;;12.98;45.43;101650.75;5026320;28;20045;-80
2023/05/17 21:18:45;;;;;;;9.52;2.60;;;13.60;56.70;;;12.93;45.53;101653.19;5022786;28;20037;-80
2023/05/17 21:21:12;;;;;;;10.13;3.10;;;13.60;56.90;;;12.88;44.88;101654.63;5023824;28;20124;-81
2023/05/17 21:23:40;;;;;;;11.45;2.90;;;13.60;56.30;;;12.88;45.17;101653.78;5024994;28;20052;-79
2023/05/17 21:26:08;;;;;;;8.73;2.95;;;13.60;57.00;;;12.85;44.89;101656.88;5026780;28;20089;-80
2023/05/17 21:28:35;;;;;;;11.48;3.20;;;13.50;56.30;;;12.82;44.77;101660.75;5023484;28;20042;-81
2023/05/17 21:31:03;;;;;;;11.18;3.00;;;13.50;56.10;;;12.80;44.68;101651.28;5041394;28;20099;-80
2023/05/17 21:33:32;;;;;;;14.85;2.80;;;13.50;56.10;;;12.77;44.37;101652.50;5026404;28;20044;-82
2023/05/17 21:36:00;;;;;;;12.45;3.42;;;13.40;55.90;;;12.76;44.59;101658.06;5028251;28;20073;-80
2023/05/17 21:38:27;;;;;;;12.23;2.70;;;13.40;55.90;;;12.76;44.82;101664.22;5026309;28;20545;-81
2023/05/17 21:40:54;;;;;;;10.27;2.92;;;13.40;56.30;;;12.73;45.16;101664.59;5024284;28;20084;-80
2023/05/17 21:43:22;;;;;;;11.23;2.72;;;13.40;56.50;;;12.70;44.78;101661.50;5023162;28;20045;-83
2023/05/17 21:45:49;;;;;;;11.65;3.17;;;13.40;56.30;;;12.67;44.86;101659.22;5025925;28;20350;-80
2023/05/17 21:48:16;;;;;;;10.57;3.22;;;13.30;56.60;;;12.65;45.03;101651.41;5028571;28;20438;-81
2023/05/17 21:50:45;;;;;;;9.98;2.65;;;13.30;56.60;;;12.63;45.38;101658.78;5028438;28;20152;-81
2023/05/17 21:53:12;;;;;;;11.88;3.22;;;13.30;56.90;;;12.62;45.40;101657.13;5030571;28;20076;-81
2023/05/17 21:55:40;;;;;;;13.02;3.05;;;13.30;56.90;;;12.61;45.40;101656.31;5027752;28;20053;-81
2023/05/17 21:58:07;;;;;;;9.13;3.03;;;13.50;57.10;;;12.61;46.06;101658.97;5029210;28;20697;-80
2023/05/17 22:00:35;;;;;;;11.15;3.10;;;13.30;57.90;;;12.59;46.22;101657.50;5013420;28;20175;-80
2023/05/17 22:03:02;;;;;;;12.10;3.42;;;13.30;57.90;;;12.57;46.51;101655.03;5020306;28;20060;-79
2023/05/17 22:05:29;;;;;;;9.85;3.08;;;13.20;58.30;;;12.53;46.90;101652.94;5029942;28;20047;-81
2023/05/17 22:07:59;;;;;;;9.25;3.00;;;13.20;58.60;;;12.50;46.93;101653.34;5026402;28;20073;-80
2023/05/17 22:10:26;;;;;;;13.45;3.20;;;13.20;58.90;;;12.46;47.36;101654.75;5035752;28;20069;-79
2023/05/17 22:12:55;;;;;;;9.65;3.15;;;13.10;59.10;;;12.42;47.14;101664.19;5029229;28;20038;-81
2023/05/17 22:15:22;;;;;;;9.65;3.00;;;13.10;59.20;;;12.38;47.25;101661.88;5035709;28;20041;-79
2023/05/17 22:17:50;;;;;;;10.00;3.17;;;13.00;59.30;;;12.35;47.51;101664.16;5029265;28;20038;-79
2023/05/17 22:20:21;;;;;;;10.95;3.17;;;13.00;59.90;;;12.29;47.21;101664.88;5026352;28;20048;-80
2023/05/17 22:22:48;;;;;;;14.15;3.38;;;12.90;59.70;;;12.26;46.84;101678.66;5028512;28;20069;-80
2023/05/17 22:25:17;;;;;;;11.65;3.25;;;12.90;59.20;;;12.25;46.79;101668.97;5030266;28;20128;-79
2023/05/17 22:27:45;;;;;;;14.75;3.72;;;12.90;59.30;;;12.23;47.00;101666.50;5028452;28;20052;-79
2023/05/17 22:30:12;;;;;;;13.77;3.42;;;12.90;59.20;;;12.22;47.23;101667.53;5031265;28;20041;-79
2023/05/17 22:32:40;;;;;;;9.57;3.00;;;12.80;59.50;;;12.17;47.78;101667.28;5029078;28;20307;-80
2023/05/17 22:35:08;;;;;;;14.20;3.25;;;12.80;60.20;;;12.15;47.45;101665.78;5030065;28;20124;-80
2023/05/17 22:37:36;;;;;;;11.88;3.55;;;12.80;59.50;;;12.12;46.71;101667.03;5020617;28;20049;-80
2023/05/17 22:40:05;;;;;;;9.65;3.03;;;12.80;59.10;;;12.10;47.02;101661.88;5030252;28;20049;-79
2023/05/17 22:42:33;;;;;;;12.32;3.00;;;12.70;59.40;;;12.09;47.55;101668.22;5029781;28;20041;-80
2023/05/17 22:45:00;;;;;;;11.45;3.63;;;12.70;60.00;;;12.07;47.14;101678.28;5029128;28;20120;-81
2023/05/17 22:47:29;;;;;;;14.95;3.42;;;12.70;59.50;;;12.06;47.71;101673.16;5030067;28;20125;-79
2023/05/17 22:49:56;;;;;;;14.70;3.47;;;12.70;60.20;;;12.03;47.96;101684.22;5030215;28;20034;-81
2023/05/17 22:52:23;;;;;;;12.50;3.63;;;12.70;60.60;;;12.00;47.93;101680.06;5029342;28;20524;-82
2023/05/17 22:54:50;;;;;;;14.02;3.30;;;12.70;60.60;;;11.99;48.25;101690.94;5029696;28;20037;-80
2023/05/17 22:57:18;;;;;;;11.63;3.75;;;12.60;60.80;;;11.94;48.51;101680.81;5029796;28;20246;-81
2023/05/17 22:59:46;;;;;;;10.65;3.25;;;12.60;60.80;;;11.92;48.13;101680.19;5030443;28;20105;-81
2023/05/17 23:02:13;;;;;;;11.73;3.35;;;12.60;60.70;;;11.89;48.23;101690.44;5029426;28;20045;-79
2023/05/17 23:04:44;;;;;;;10.82;3.53;;;12.50;61.00;;;11.84;48.57;101681.13;5029438;28;20571;-79
2023/05/17 23:07:11;;;;;;;15.13;3.75;;;12.50;61.40;;;11.81;48.82;101686.84;5030251;28;20045;-80
2023/05/17 23:09:39;;;;;;;13.50;3.35;;;12.40;61.80;;;11.76;48.82;101681.25;5029952;28;20125;-80
2023/05/17 23:12:07;;;;;;;11.38;3.22;;;12.40;61.60;;;11.75;48.67;101681.41;5029473;28;20049;-83
2023/05/17 23:14:35;;;;;;;12.70;3.50;;;12.40;61.50;;;11.71;48.80;101680.97;5044232;28;20106;-79
2023/05/17 23:17:04;;;;;;;10.40;3.50;;;12.30;61.80;;;11.68;48.92;101677.84;5029773;28;20129;-80
2023/05/17 23:19:32;;;;;;;8.25;3.38;;;12.30;61.90;;;11.64;48.13;101681.91;5029809;28;20046;-80
2023/05/17 23:22:01;;;;;;;16.33;3.55;;;12.30;61.10;;;11.63;48.80;101673.06;5028449;28;20041;-81
2023/05/17 23:24:29;;;;;;;14.60;3.38;;;12.30;61.80;;;11.61;48.59;101683.09;5029448;28;20175;-80
2023/05/17 23:26:56;;;;;;;15.70;3.92;;;12.20;61.50;;;11.58;48.92;101686.16;5029555;28;20124;-80
2023/05/17 23:29:24;;;;;;;8.70;3.17;;;12.20;61.90;;;11.56;49.42;101682.84;5029877;28;20095;-80
2023/05/17 23:31:51;;;;;;;8.65;3.05;;;12.20;62.40;;;11.54;49.46;101684.88;5029387;28;20045;-81
2023/05/17 23:34:20;;;;;;;9.90;3.58;;;12.20;62.50;;;11.54;49.44;101690.22;5028397;28;20050;-80
2023/05/17 23:36:48;;;;;;;11.00;3.30;;;12.10;62.50;;;11.50;49.00;101678.25;5023696;28;20048;-80
2023/05/17 23:39:15;;;;;;;16.90;3.13;;;12.10;62.20;;;11.50;49.23;101691.63;5028109;28;20498;-78
2023/05/17 23:41:42;;;;;;;10.70;3.20;;;12.10;62.50;;;11.48;49.45;101689.13;5027796;28;20045;-79
2023/05/17 23:44:09;;;;;;;16.70;4.07;;;12.10;62.40;;;11.48;49.62;101688.31;5029638;28;20458;-80
2023/05/17 23:46:37;;;;;;;14.98;3.95;;;12.10;63.00;;;11.42;49.55;101687.22;5028500;28;20041;-79
2023/05/17 23:49:04;;;;;;;13.52;3.50;;;12.00;62.80;;;11.39;49.95;101684.09;5028917;28;20068;-79
2023/05/17 23:51:33;;;;;;;11.23;3.80;;;12.00;63.20;;;11.36;50.03;101685.28;5026468;28;20048;-81
2023/05/17 23:54:00;;;;;;;11.98;3.28;;;12.00;63.50;;;11.35;49.76;101676.44;5028404;28;20072;-80
2023/05/17 23:56:28;;;;;;;12.02;3.20;;;12.00;63.10;;;11.34;49.56;101680.13;5042109;28;20119;-79
2023/05/17 23:58:55;;;;;;;17.73;3.70;;;12.00;62.80;;;11.33;49.74;101681.16;5026517;28;20041;-82
